sensor_id;sensor_type;location;lat;lon;timestamp;pressure;altitude;pressure_sealevel;temperature;humidity
55517;BME280;41724;51.176;-0.708;2023-09-07T00:00:28;101367.24;;;24.74;67.31
55517;BME280;41724;51.176;-0.708;2023-09-07T00:02:55;101366.84;;;24.52;67.38
55517;BME280;41724;51.176;-0.708;2023-09-07T00:05:22;101365.69;;;24.51;67.82
55517;BME280;41724;51.176;-0.708;2023-09-07T00:07:49;101361.82;;;24.48;67.75
55517;BME280;41724;51.176;-0.708;2023-09-07T00:10:17;101358.01;;;24.33;67.80
55517;BME280;41724;51.176;-0.708;2023-09-07T00:12:44;101363.94;;;24.62;67.50
55517;BME280;41724;51.176;-0.708;2023-09-07T00:15:11;101365.53;;;24.62;67.40
55517;BME280;41724;51.176;-0.708;2023-09-07T00:17:38;101367.47;;;24.51;67.75
55517;BME280;41724;51.176;-0.708;2023-09-07T00:20:06;101370.68;;;24.37;68.17
55517;BME280;41724;51.176;-0.708;2023-09-07T00:22:33;101367.87;;;24.15;67.90
55517;BME280;41724;51.176;-0.708;2023-09-07T00:25:00;101357.71;;;23.99;68.63
55517;BME280;41724;51.176;-0.708;2023-09-07T00:27:27;101350.89;;;24.39;68.20
55517;BME280;41724;51.176;-0.708;2023-09-07T00:29:54;101345.72;;;24.32;67.85
55517;BME280;41724;51.176;-0.708;2023-09-07T00:32:21;101347.21;;;24.58;68.05
55517;BME280;41724;51.176;-0.708;2023-09-07T00:34:48;101349.84;;;23.98;68.35
55517;BME280;41724;51.176;-0.708;2023-09-07T00:37:14;101351.70;;;24.09;67.96
55517;BME280;41724;51.176;-0.708;2023-09-07T00:39:41;101355.52;;;24.07;68.34
55517;BME280;41724;51.176;-0.708;2023-09-07T00:42:08;101351.88;;;24.02;68.29
55517;BME280;41724;51.176;-0.708;2023-09-07T00:44:36;101351.43;;;24.38;67.79
55517;BME280;41724;51.176;-0.708;2023-09-07T00:47:03;101356.66;;;24.11;67.72
55517;BME280;41724;51.176;-0.708;2023-09-07T00:49:31;101359.24;;;24.28;67.82
55517;BME280;41724;51.176;-0.708;2023-09-07T00:51:58;101362.62;;;23.96;68.62
55517;BME280;41724;51.176;-0.708;2023-09-07T00:54:25;101365.67;;;24.07;68.36
55517;BME280;41724;51.176;-0.708;2023-09-07T00:56:52;101356.61;;;23.92;68.83
55517;BME280;41724;51.176;-0.708;2023-09-07T00:59:21;101349.87;;;23.78;69.16
55517;BME280;41724;51.176;-0.708;2023-09-07T01:01:48;101352.83;;;23.80;69.52
55517;BME280;41724;51.176;-0.708;2023-09-07T01:04:15;101353.45;;;23.67;69.09
55517;BME280;41724;51.176;-0.708;2023-09-07T01:06:46;101351.03;;;23.81;68.50
55517;BME280;41724;51.176;-0.708;2023-09-07T01:09:21;101351.73;;;23.66;69.02
55517;BME280;41724;51.176;-0.708;2023-09-07T01:11:51;101343.69;;;23.64;68.21
55517;BME280;41724;51.176;-0.708;2023-09-07T01:14:19;101340.14;;;23.35;69.31
55517;BME280;41724;51.176;-0.708;2023-09-07T01:16:46;101336.04;;;23.31;68.65
55517;BME280;41724;51.176;-0.708;2023-09-07T01:19:16;101333.51;;;23.42;68.41
55517;BME280;41724;51.176;-0.708;2023-09-07T01:21:43;101331.66;;;23.50;68.05
55517;BME280;41724;51.176;-0.708;2023-09-07T01:24:11;101328.39;;;23.32;68.17
55517;BME280;41724;51.176;-0.708;2023-09-07T01:26:38;101325.90;;;23.52;68.19
55517;BME280;41724;51.176;-0.708;2023-09-07T01:29:05;101324.55;;;23.58;67.81
55517;BME280;41724;51.176;-0.708;2023-09-07T01:31:35;101326.29;;;23.49;68.13
55517;BME280;41724;51.176;-0.708;2023-09-07T01:34:02;101324.98;;;23.26;69.13
55517;BME280;41724;51.176;-0.708;2023-09-07T01:36:30;101322.82;;;23.41;69.03
55517;BME280;41724;51.176;-0.708;2023-09-07T01:38:57;101320.06;;;23.11;69.10
55517;BME280;41724;51.176;-0.708;2023-09-07T01:41:24;101314.91;;;23.00;69.47
55517;BME280;41724;51.176;-0.708;2023-09-07T01:43:51;101312.72;;;22.93;69.56
55517;BME280;41724;51.176;-0.708;2023-09-07T01:46:18;101308.50;;;23.17;68.03
55517;BME280;41724;51.176;-0.708;2023-09-07T01:48:45;101312.03;;;23.12;69.70
55517;BME280;41724;51.176;-0.708;2023-09-07T01:51:13;101313.43;;;22.76;69.03
55517;BME280;41724;51.176;-0.708;2023-09-07T01:53:41;101308.81;;;22.77;68.58
55517;BME280;41724;51.176;-0.708;2023-09-07T01:56:08;101305.74;;;23.03;68.73
55517;BME280;41724;51.176;-0.708;2023-09-07T01:58:35;101302.58;;;22.87;68.63
55517;BME280;41724;51.176;-0.708;2023-09-07T02:01:02;101302.54;;;22.95;69.04
55517;BME280;41724;51.176;-0.708;2023-09-07T02:03:29;101299.51;;;22.99;68.61
55517;BME280;41724;51.176;-0.708;2023-09-07T02:05:56;101299.28;;;22.88;68.20
55517;BME280;41724;51.176;-0.708;2023-09-07T02:08:23;101301.67;;;22.86;68.78
55517;BME280;41724;51.176;-0.708;2023-09-07T02:10:50;101303.64;;;22.65;68.48
55517;BME280;41724;51.176;-0.708;2023-09-07T02:13:17;101306.85;;;22.58;68.40
55517;BME280;41724;51.176;-0.708;2023-09-07T02:15:44;101302.43;;;22.67;68.71
55517;BME280;41724;51.176;-0.708;2023-09-07T02:18:11;101300.37;;;22.79;68.15
55517;BME280;41724;51.176;-0.708;2023-09-07T02:20:38;101298.09;;;22.87;67.60
55517;BME280;41724;51.176;-0.708;2023-09-07T02:23:05;101299.31;;;22.53;68.49
55517;BME280;41724;51.176;-0.708;2023-09-07T02:25:32;101301.67;;;22.59;69.36
55517;BME280;41724;51.176;-0.708;2023-09-07T02:27:59;101300.02;;;22.47;68.75
55517;BME280;41724;51.176;-0.708;2023-09-07T02:30:26;101297.14;;;22.73;68.39
55517;BME280;41724;51.176;-0.708;2023-09-07T02:32:53;101296.73;;;22.56;68.04
55517;BME280;41724;51.176;-0.708;2023-09-07T02:35:20;101292.57;;;22.42;68.31
55517;BME280;41724;51.176;-0.708;2023-09-07T02:37:46;101294.37;;;22.22;68.47
55517;BME280;41724;51.176;-0.708;2023-09-07T02:40:13;101289.81;;;22.27;68.18
55517;BME280;41724;51.176;-0.708;2023-09-07T02:42:40;101288.88;;;22.31;67.85
55517;BME280;41724;51.176;-0.708;2023-09-07T02:45:10;101291.26;;;22.45;68.35
55517;BME280;41724;51.176;-0.708;2023-09-07T02:47:37;101291.41;;;22.06;68.51
55517;BME280;41724;51.176;-0.708;2023-09-07T02:50:04;101291.57;;;22.52;67.93
55517;BME280;41724;51.176;-0.708;2023-09-07T02:52:31;101290.45;;;22.43;67.80
55517;BME280;41724;51.176;-0.708;2023-09-07T02:54:58;101295.31;;;22.16;68.44
55517;BME280;41724;51.176;-0.708;2023-09-07T02:57:25;101297.02;;;21.98;68.39
55517;BME280;41724;51.176;-0.708;2023-09-07T02:59:53;101301.49;;;22.02;67.61
55517;BME280;41724;51.176;-0.708;2023-09-07T03:02:20;101301.81;;;22.20;67.80
55517;BME280;41724;51.176;-0.708;2023-09-07T03:04:53;101297.17;;;22.43;67.46
55517;BME280;41724;51.176;-0.708;2023-09-07T03:07:20;101295.89;;;22.19;67.13
55517;BME280;41724;51.176;-0.708;2023-09-07T03:09:47;101297.32;;;21.67;68.05
55517;BME280;41724;51.176;-0.708;2023-09-07T03:12:14;101291.38;;;22.23;67.95
55517;BME280;41724;51.176;-0.708;2023-09-07T03:14:43;101285.31;;;22.01;67.49
55517;BME280;41724;51.176;-0.708;2023-09-07T03:17:11;101285.67;;;21.72;67.45
55517;BME280;41724;51.176;-0.708;2023-09-07T03:19:40;101283.89;;;21.74;69.21
55517;BME280;41724;51.176;-0.708;2023-09-07T03:22:07;101277.74;;;22.13;67.45
55517;BME280;41724;51.176;-0.708;2023-09-07T03:24:35;101275.41;;;21.87;67.61
55517;BME280;41724;51.176;-0.708;2023-09-07T03:27:02;101271.41;;;22.01;68.04
55517;BME280;41724;51.176;-0.708;2023-09-07T03:29:30;101268.87;;;21.48;68.29
55517;BME280;41724;51.176;-0.708;2023-09-07T03:31:56;101267.98;;;22.03;67.23
55517;BME280;41724;51.176;-0.708;2023-09-07T03:34:24;101268.34;;;22.11;66.58
55517;BME280;41724;51.176;-0.708;2023-09-07T03:36:51;101266.89;;;21.85;66.49
55517;BME280;41724;51.176;-0.708;2023-09-07T03:39:18;101266.80;;;21.86;66.58
55517;BME280;41724;51.176;-0.708;2023-09-07T03:41:45;101265.95;;;21.98;66.92
55517;BME280;41724;51.176;-0.708;2023-09-07T03:44:12;101262.26;;;21.37;67.54
55517;BME280;41724;51.176;-0.708;2023-09-07T03:46:39;101263.16;;;21.71;67.41
55517;BME280;41724;51.176;-0.708;2023-09-07T03:49:06;101261.69;;;21.66;67.15
55517;BME280;41724;51.176;-0.708;2023-09-07T03:51:34;101258.62;;;21.65;67.02
55517;BME280;41724;51.176;-0.708;2023-09-07T03:54:01;101262.55;;;21.56;66.89
55517;BME280;41724;51.176;-0.708;2023-09-07T03:56:28;101256.59;;;21.67;67.08
55517;BME280;41724;51.176;-0.708;2023-09-07T03:58:54;101255.08;;;21.46;66.65
55517;BME280;41724;51.176;-0.708;2023-09-07T04:01:21;101257.25;;;21.27;66.69
55517;BME280;41724;51.176;-0.708;2023-09-07T04:03:48;101255.34;;;21.37;66.40
55517;BME280;41724;51.176;-0.708;2023-09-07T04:06:16;101256.83;;;21.30;65.87
55517;BME280;41724;51.176;-0.708;2023-09-07T04:08:44;101257.92;;;21.23;65.96
55517;BME280;41724;51.176;-0.708;2023-09-07T04:11:11;101258.36;;;21.18;66.38
55517;BME280;41724;51.176;-0.708;2023-09-07T04:13:38;101257.97;;;21.08;66.17
55517;BME280;41724;51.176;-0.708;2023-09-07T04:16:05;101256.16;;;20.75;66.50
55517;BME280;41724;51.176;-0.708;2023-09-07T04:18:31;101252.89;;;20.74;66.47
55517;BME280;41724;51.176;-0.708;2023-09-07T04:21:05;101253.20;;;20.90;66.19
55517;BME280;41724;51.176;-0.708;2023-09-07T04:23:32;101255.08;;;21.08;65.90
55517;BME280;41724;51.176;-0.708;2023-09-07T04:26:06;101250.98;;;20.71;66.15
55517;BME280;41724;51.176;-0.708;2023-09-07T04:28:33;101249.94;;;20.73;67.63
55517;BME280;41724;51.176;-0.708;2023-09-07T04:31:01;101246.82;;;20.43;67.66
55517;BME280;41724;51.176;-0.708;2023-09-07T04:33:30;101242.96;;;20.88;67.20
55517;BME280;41724;51.176;-0.708;2023-09-07T04:35:56;101244.76;;;20.81;66.79
55517;BME280;41724;51.176;-0.708;2023-09-07T04:38:23;101241.38;;;20.75;67.09
55517;BME280;41724;51.176;-0.708;2023-09-07T04:40:50;101243.99;;;20.14;67.71
55517;BME280;41724;51.176;-0.708;2023-09-07T04:43:17;101240.04;;;20.35;66.56
55517;BME280;41724;51.176;-0.708;2023-09-07T04:45:46;101239.43;;;20.35;66.35
55517;BME280;41724;51.176;-0.708;2023-09-07T04:48:14;101238.46;;;20.77;66.50
55517;BME280;41724;51.176;-0.708;2023-09-07T04:50:41;101235.35;;;20.85;66.29
55517;BME280;41724;51.176;-0.708;2023-09-07T04:53:08;101238.44;;;20.33;66.42
55517;BME280;41724;51.176;-0.708;2023-09-07T04:55:37;101239.24;;;20.87;66.05
55517;BME280;41724;51.176;-0.708;2023-09-07T04:58:05;101242.39;;;20.84;66.01
55517;BME280;41724;51.176;-0.708;2023-09-07T05:00:33;101246.68;;;20.17;66.70
55517;BME280;41724;51.176;-0.708;2023-09-07T05:02:59;101243.71;;;20.76;66.06
55517;BME280;41724;51.176;-0.708;2023-09-07T05:05:26;101245.78;;;20.62;66.00
55517;BME280;41724;51.176;-0.708;2023-09-07T05:07:53;101246.22;;;20.60;66.64
55517;BME280;41724;51.176;-0.708;2023-09-07T05:10:19;101248.03;;;20.38;67.65
55517;BME280;41724;51.176;-0.708;2023-09-07T05:12:46;101252.20;;;20.49;66.95
55517;BME280;41724;51.176;-0.708;2023-09-07T05:15:13;101253.45;;;20.16;67.14
55517;BME280;41724;51.176;-0.708;2023-09-07T05:17:41;101249.93;;;20.22;67.15
55517;BME280;41724;51.176;-0.708;2023-09-07T05:20:08;101246.71;;;20.29;67.03
55517;BME280;41724;51.176;-0.708;2023-09-07T05:22:35;101247.14;;;20.39;66.28
55517;BME280;41724;51.176;-0.708;2023-09-07T05:25:03;101250.38;;;20.39;66.73
55517;BME280;41724;51.176;-0.708;2023-09-07T05:27:30;101252.35;;;20.26;67.06
55517;BME280;41724;51.176;-0.708;2023-09-07T05:29:57;101253.62;;;20.10;67.77
55517;BME280;41724;51.176;-0.708;2023-09-07T05:32:24;101248.20;;;20.44;67.33
55517;BME280;41724;51.176;-0.708;2023-09-07T05:34:51;101248.89;;;19.69;67.31
55517;BME280;41724;51.176;-0.708;2023-09-07T05:37:18;101246.50;;;20.02;67.52
55517;BME280;41724;51.176;-0.708;2023-09-07T05:39:45;101242.56;;;20.03;67.30
55517;BME280;41724;51.176;-0.708;2023-09-07T05:42:12;101240.62;;;20.18;68.44
55517;BME280;41724;51.176;-0.708;2023-09-07T05:44:39;101239.86;;;20.07;67.83
55517;BME280;41724;51.176;-0.708;2023-09-07T05:47:07;101244.30;;;20.14;67.02
55517;BME280;41724;51.176;-0.708;2023-09-07T05:49:34;101243.45;;;20.41;66.92
55517;BME280;41724;51.176;-0.708;2023-09-07T05:52:00;101250.16;;;20.03;66.92
55517;BME280;41724;51.176;-0.708;2023-09-07T05:54:27;101253.94;;;19.96;68.79
55517;BME280;41724;51.176;-0.708;2023-09-07T05:56:54;101250.38;;;20.31;67.17
55517;BME280;41724;51.176;-0.708;2023-09-07T05:59:21;101247.66;;;20.16;67.32
55517;BME280;41724;51.176;-0.708;2023-09-07T06:01:48;101245.33;;;20.36;67.52
55517;BME280;41724;51.176;-0.708;2023-09-07T06:04:15;101242.14;;;20.52;66.96
55517;BME280;41724;51.176;-0.708;2023-09-07T06:06:42;101245.57;;;20.34;68.32
55517;BME280;41724;51.176;-0.708;2023-09-07T06:09:08;101248.18;;;20.17;69.31
55517;BME280;41724;51.176;-0.708;2023-09-07T06:11:35;101250.58;;;20.46;68.39
55517;BME280;41724;51.176;-0.708;2023-09-07T06:14:03;101254.19;;;20.44;69.69
55517;BME280;41724;51.176;-0.708;2023-09-07T06:16:30;101257.60;;;20.78;69.30
55517;BME280;41724;51.176;-0.708;2023-09-07T06:18:57;101261.55;;;20.13;70.95
55517;BME280;41724;51.176;-0.708;2023-09-07T06:21:24;101263.43;;;20.56;68.98
55517;BME280;41724;51.176;-0.708;2023-09-07T06:23:51;101267.91;;;20.66;67.86
55517;BME280;41724;51.176;-0.708;2023-09-07T06:26:18;101273.64;;;20.58;68.63
55517;BME280;41724;51.176;-0.708;2023-09-07T06:28:46;101274.41;;;20.61;69.35
55517;BME280;41724;51.176;-0.708;2023-09-07T06:31:13;101273.26;;;21.09;68.99
55517;BME280;41724;51.176;-0.708;2023-09-07T06:33:40;101275.45;;;20.61;70.96
55517;BME280;41724;51.176;-0.708;2023-09-07T06:36:07;101277.78;;;20.89;70.30
55517;BME280;41724;51.176;-0.708;2023-09-07T06:38:35;101280.16;;;21.07;69.48
55517;BME280;41724;51.176;-0.708;2023-09-07T06:41:02;101281.30;;;21.27;68.94
55517;BME280;41724;51.176;-0.708;2023-09-07T06:43:30;101275.75;;;21.42;68.58
55517;BME280;41724;51.176;-0.708;2023-09-07T06:46:02;101278.98;;;21.21;69.36
55517;BME280;41724;51.176;-0.708;2023-09-07T06:48:30;101281.51;;;21.30;69.04
55517;BME280;41724;51.176;-0.708;2023-09-07T06:51:01;101281.45;;;21.46;68.61
55517;BME280;41724;51.176;-0.708;2023-09-07T06:53:28;101275.49;;;21.53;68.88
55517;BME280;41724;51.176;-0.708;2023-09-07T06:55:57;101272.74;;;21.82;68.70
55517;BME280;41724;51.176;-0.708;2023-09-07T06:58:24;101273.39;;;21.74;69.22
55517;BME280;41724;51.176;-0.708;2023-09-07T07:00:52;101266.67;;;21.82;69.24
55517;BME280;41724;51.176;-0.708;2023-09-07T07:03:19;101266.01;;;21.47;69.12
55517;BME280;41724;51.176;-0.708;2023-09-07T07:05:46;101268.66;;;21.73;69.35
55517;BME280;41724;51.176;-0.708;2023-09-07T07:08:14;101265.62;;;21.92;68.98
55517;BME280;41724;51.176;-0.708;2023-09-07T07:10:41;101263.43;;;21.63;69.92
55517;BME280;41724;51.176;-0.708;2023-09-07T07:13:10;101261.96;;;22.12;69.68
55517;BME280;41724;51.176;-0.708;2023-09-07T07:15:38;101262.88;;;21.82;70.61
55517;BME280;41724;51.176;-0.708;2023-09-07T07:18:05;101262.76;;;22.24;69.56
55517;BME280;41724;51.176;-0.708;2023-09-07T07:20:32;101264.41;;;22.19;70.34
55517;BME280;41724;51.176;-0.708;2023-09-07T07:22:59;101267.74;;;22.27;70.71
55517;BME280;41724;51.176;-0.708;2023-09-07T07:25:26;101270.77;;;22.48;70.75
55517;BME280;41724;51.176;-0.708;2023-09-07T07:27:53;101270.08;;;22.46;71.67
55517;BME280;41724;51.176;-0.708;2023-09-07T07:30:20;101272.60;;;22.40;72.63
55517;BME280;41724;51.176;-0.708;2023-09-07T07:32:48;101273.34;;;22.26;73.74
55517;BME280;41724;51.176;-0.708;2023-09-07T07:35:15;101278.04;;;22.32;73.88
55517;BME280;41724;51.176;-0.708;2023-09-07T07:37:42;101274.40;;;22.68;73.03
55517;BME280;41724;51.176;-0.708;2023-09-07T07:40:11;101273.74;;;22.89;73.04
55517;BME280;41724;51.176;-0.708;2023-09-07T07:42:38;101268.47;;;23.10;72.99
55517;BME280;41724;51.176;-0.708;2023-09-07T07:45:06;101266.15;;;23.08;71.32
55517;BME280;41724;51.176;-0.708;2023-09-07T07:47:34;101267.82;;;23.26;72.23
55517;BME280;41724;51.176;-0.708;2023-09-07T07:50:01;101263.14;;;23.67;71.81
55517;BME280;41724;51.176;-0.708;2023-09-07T07:52:28;101263.35;;;23.88;70.36
55517;BME280;41724;51.176;-0.708;2023-09-07T07:54:56;101264.44;;;24.06;70.49
55517;BME280;41724;51.176;-0.708;2023-09-07T07:57:23;101265.34;;;23.90;70.77
55517;BME280;41724;51.176;-0.708;2023-09-07T07:59:50;101267.32;;;24.38;70.18
55517;BME280;41724;51.176;-0.708;2023-09-07T08:02:17;101270.27;;;24.22;70.10
55517;BME280;41724;51.176;-0.708;2023-09-07T08:04:44;101268.98;;;24.18;70.82
55517;BME280;41724;51.176;-0.708;2023-09-07T08:07:11;101266.93;;;24.46;70.61
55517;BME280;41724;51.176;-0.708;2023-09-07T08:09:38;101269.38;;;24.25;70.29
55517;BME280;41724;51.176;-0.708;2023-09-07T08:12:06;101266.43;;;24.52;70.08
55517;BME280;41724;51.176;-0.708;2023-09-07T08:14:33;101267.03;;;24.75;69.57
55517;BME280;41724;51.176;-0.708;2023-09-07T08:17:01;101266.49;;;24.76;69.23
55517;BME280;41724;51.176;-0.708;2023-09-07T08:19:28;101262.17;;;24.70;68.09
55517;BME280;41724;51.176;-0.708;2023-09-07T08:21:56;101263.18;;;24.63;68.69
55517;BME280;41724;51.176;-0.708;2023-09-07T08:24:23;101265.99;;;24.92;68.07
55517;BME280;41724;51.176;-0.708;2023-09-07T08:26:51;101267.13;;;25.07;68.17
55517;BME280;41724;51.176;-0.708;2023-09-07T08:29:18;101263.84;;;25.13;68.07
55517;BME280;41724;51.176;-0.708;2023-09-07T08:31:45;101263.52;;;25.31;67.68
55517;BME280;41724;51.176;-0.708;2023-09-07T08:34:12;101262.70;;;25.26;67.34
55517;BME280;41724;51.176;-0.708;2023-09-07T08:36:41;101262.37;;;25.58;67.01
55517;BME280;41724;51.176;-0.708;2023-09-07T08:39:08;101260.67;;;25.41;67.08
55517;BME280;41724;51.176;-0.708;2023-09-07T08:41:37;101258.72;;;25.07;69.09
55517;BME280;41724;51.176;-0.708;2023-09-07T08:44:07;101256.68;;;25.38;68.52
55517;BME280;41724;51.176;-0.708;2023-09-07T08:46:35;101251.42;;;25.81;67.45
55517;BME280;41724;51.176;-0.708;2023-09-07T08:49:03;101249.45;;;25.48;67.23
55517;BME280;41724;51.176;-0.708;2023-09-07T08:51:31;101248.76;;;25.84;67.02
55517;BME280;41724;51.176;-0.708;2023-09-07T08:53:58;101246.69;;;25.41;67.27
55517;BME280;41724;51.176;-0.708;2023-09-07T08:56:26;101245.39;;;25.62;67.57
55517;BME280;41724;51.176;-0.708;2023-09-07T08:58:53;101243.56;;;25.80;66.94
55517;BME280;41724;51.176;-0.708;2023-09-07T09:01:20;101242.22;;;25.98;67.47
55517;BME280;41724;51.176;-0.708;2023-09-07T09:03:49;101239.80;;;26.03;66.30
55517;BME280;41724;51.176;-0.708;2023-09-07T09:06:18;101240.38;;;26.12;67.06
55517;BME280;41724;51.176;-0.708;2023-09-07T09:08:47;101240.38;;;26.23;66.19
55517;BME280;41724;51.176;-0.708;2023-09-07T09:11:15;101243.72;;;26.06;65.36
55517;BME280;41724;51.176;-0.708;2023-09-07T09:13:43;101243.19;;;25.82;65.86
55517;BME280;41724;51.176;-0.708;2023-09-07T09:16:11;101242.85;;;26.30;64.59
55517;BME280;41724;51.176;-0.708;2023-09-07T09:18:38;101237.32;;;26.44;64.58
55517;BME280;41724;51.176;-0.708;2023-09-07T09:21:05;101238.21;;;26.61;63.93
55517;BME280;41724;51.176;-0.708;2023-09-07T09:23:33;101237.42;;;26.76;62.97
55517;BME280;41724;51.176;-0.708;2023-09-07T09:26:00;101235.40;;;26.68;63.11
55517;BME280;41724;51.176;-0.708;2023-09-07T09:28:27;101233.37;;;26.86;62.46
55517;BME280;41724;51.176;-0.708;2023-09-07T09:30:55;101233.10;;;26.87;62.67
55517;BME280;41724;51.176;-0.708;2023-09-07T09:33:23;101231.02;;;26.64;62.43
55517;BME280;41724;51.176;-0.708;2023-09-07T09:35:50;101227.76;;;26.83;62.28
55517;BME280;41724;51.176;-0.708;2023-09-07T09:38:18;101224.71;;;26.54;63.51
55517;BME280;41724;51.176;-0.708;2023-09-07T09:40:46;101227.23;;;27.10;61.83
55517;BME280;41724;51.176;-0.708;2023-09-07T09:43:13;101224.42;;;27.04;62.16
55517;BME280;41724;51.176;-0.708;2023-09-07T09:45:40;101223.96;;;27.26;62.42
55517;BME280;41724;51.176;-0.708;2023-09-07T09:48:07;101220.84;;;27.07;62.43
55517;BME280;41724;51.176;-0.708;2023-09-07T09:50:35;101220.83;;;27.46;62.59
55517;BME280;41724;51.176;-0.708;2023-09-07T09:53:05;101222.79;;;27.72;60.62
55517;BME280;41724;51.176;-0.708;2023-09-07T09:55:32;101225.30;;;27.84;61.65
55517;BME280;41724;51.176;-0.708;2023-09-07T09:58:00;101221.31;;;27.49;61.00
55517;BME280;41724;51.176;-0.708;2023-09-07T10:00:27;101222.64;;;27.68;61.02
55517;BME280;41724;51.176;-0.708;2023-09-07T10:03:00;101217.85;;;28.21;60.43
55517;BME280;41724;51.176;-0.708;2023-09-07T10:05:30;101216.98;;;28.00;59.00
55517;BME280;41724;51.176;-0.708;2023-09-07T10:08:01;101219.16;;;28.49;59.67
55517;BME280;41724;51.176;-0.708;2023-09-07T10:10:34;101216.23;;;28.09;59.73
55517;BME280;41724;51.176;-0.708;2023-09-07T10:13:01;101212.85;;;28.09;58.65
55517;BME280;41724;51.176;-0.708;2023-09-07T10:15:29;101210.67;;;27.99;59.12
55517;BME280;41724;51.176;-0.708;2023-09-07T10:18:05;101208.23;;;28.35;61.37
55517;BME280;41724;51.176;-0.708;2023-09-07T10:20:47;101207.70;;;28.48;59.81
55517;BME280;41724;51.176;-0.708;2023-09-07T10:23:15;101199.88;;;28.67;57.39
55517;BME280;41724;51.176;-0.708;2023-09-07T10:25:47;101198.27;;;28.49;57.10
55517;BME280;41724;51.176;-0.708;2023-09-07T10:28:19;101194.50;;;28.91;57.62
55517;BME280;41724;51.176;-0.708;2023-09-07T10:30:58;101194.24;;;28.36;56.24
55517;BME280;41724;51.176;-0.708;2023-09-07T10:33:26;101192.43;;;29.23;56.54
55517;BME280;41724;51.176;-0.708;2023-09-07T10:35:53;101191.68;;;28.77;56.36
55517;BME280;41724;51.176;-0.708;2023-09-07T10:38:21;101187.86;;;29.08;55.21
55517;BME280;41724;51.176;-0.708;2023-09-07T10:40:57;101184.86;;;29.32;56.76
55517;BME280;41724;51.176;-0.708;2023-09-07T10:43:26;101178.81;;;29.26;54.97
55517;BME280;41724;51.176;-0.708;2023-09-07T10:45:53;101176.48;;;29.46;53.81
55517;BME280;41724;51.176;-0.708;2023-09-07T10:48:21;101172.09;;;29.67;57.92
55517;BME280;41724;51.176;-0.708;2023-09-07T10:50:48;101176.24;;;29.19;56.06
55517;BME280;41724;51.176;-0.708;2023-09-07T10:53:26;101175.38;;;29.85;54.21
55517;BME280;41724;51.176;-0.708;2023-09-07T10:55:53;101174.36;;;29.41;53.89
55517;BME280;41724;51.176;-0.708;2023-09-07T10:58:25;101169.91;;;29.96;53.17
55517;BME280;41724;51.176;-0.708;2023-09-07T11:00:53;101166.48;;;30.26;53.47
55517;BME280;41724;51.176;-0.708;2023-09-07T11:03:20;101164.76;;;30.01;50.21
55517;BME280;41724;51.176;-0.708;2023-09-07T11:05:48;101161.97;;;30.45;51.92
55517;BME280;41724;51.176;-0.708;2023-09-07T11:08:16;101161.21;;;30.46;50.69
55517;BME280;41724;51.176;-0.708;2023-09-07T11:10:43;101159.04;;;30.27;50.59
55517;BME280;41724;51.176;-0.708;2023-09-07T11:13:10;101156.97;;;30.40;50.44
55517;BME280;41724;51.176;-0.708;2023-09-07T11:15:37;101158.52;;;30.73;49.70
55517;BME280;41724;51.176;-0.708;2023-09-07T11:18:05;101159.21;;;31.32;50.07
55517;BME280;41724;51.176;-0.708;2023-09-07T11:20:33;101156.14;;;31.13;46.26
55517;BME280;41724;51.176;-0.708;2023-09-07T12:54:46;101093.15;;;34.50;35.33
55517;BME280;41724;51.176;-0.708;2023-09-07T12:57:14;101096.33;;;34.78;33.59
55517;BME280;41724;51.176;-0.708;2023-09-07T12:59:41;101092.18;;;35.09;32.25
55517;BME280;41724;51.176;-0.708;2023-09-07T13:02:08;101092.84;;;35.86;32.57
55517;BME280;41724;51.176;-0.708;2023-09-07T13:04:36;101088.94;;;35.68;31.91
55517;BME280;41724;51.176;-0.708;2023-09-07T13:07:04;101091.14;;;35.65;30.80
55517;BME280;41724;51.176;-0.708;2023-09-07T13:09:31;101085.81;;;35.90;29.95
55517;BME280;41724;51.176;-0.708;2023-09-07T13:11:58;101082.08;;;35.62;30.27
55517;BME280;41724;51.176;-0.708;2023-09-07T13:14:26;101083.87;;;36.37;29.27
55517;BME280;41724;51.176;-0.708;2023-09-07T13:16:53;101080.36;;;36.45;28.94
55517;BME280;41724;51.176;-0.708;2023-09-07T13:19:21;101072.12;;;37.64;26.86
55517;BME280;41724;51.176;-0.708;2023-09-07T13:21:48;101069.57;;;38.61;27.05
55517;BME280;41724;51.176;-0.708;2023-09-07T13:24:15;101069.67;;;38.76;27.04
55517;BME280;41724;51.176;-0.708;2023-09-07T13:26:46;101065.74;;;40.16;24.50
55517;BME280;41724;51.176;-0.708;2023-09-07T13:29:13;101066.40;;;40.45;24.61
55517;BME280;41724;51.176;-0.708;2023-09-07T13:31:39;101066.18;;;40.80;23.40
55517;BME280;41724;51.176;-0.708;2023-09-07T13:34:07;101063.37;;;42.90;23.28
55517;BME280;41724;51.176;-0.708;2023-09-07T13:36:34;101060.82;;;42.71;22.16
55517;BME280;41724;51.176;-0.708;2023-09-07T13:39:01;101057.55;;;42.60;22.74
55517;BME280;41724;51.176;-0.708;2023-09-07T13:41:30;101053.37;;;43.78;21.45
55517;BME280;41724;51.176;-0.708;2023-09-07T13:43:57;101051.17;;;44.17;19.74
55517;BME280;41724;51.176;-0.708;2023-09-07T13:46:24;101048.85;;;45.45;20.22
55517;BME280;41724;51.176;-0.708;2023-09-07T13:48:51;101049.90;;;44.09;18.97
55517;BME280;41724;51.176;-0.708;2023-09-07T13:51:19;101048.61;;;44.08;17.75
55517;BME280;41724;51.176;-0.708;2023-09-07T13:53:46;101044.28;;;45.11;17.55
55517;BME280;41724;51.176;-0.708;2023-09-07T13:56:13;101039.26;;;44.79;18.03
55517;BME280;41724;51.176;-0.708;2023-09-07T13:58:41;101043.58;;;45.34;17.96
55517;BME280;41724;51.176;-0.708;2023-09-07T14:01:08;101040.69;;;45.92;16.75
55517;BME280;41724;51.176;-0.708;2023-09-07T14:03:35;101041.99;;;46.35;17.66
55517;BME280;41724;51.176;-0.708;2023-09-07T14:06:03;101036.63;;;46.46;17.41
55517;BME280;41724;51.176;-0.708;2023-09-07T14:08:30;101034.55;;;45.48;17.26
55517;BME280;41724;51.176;-0.708;2023-09-07T14:10:58;101033.37;;;45.33;17.20
55517;BME280;41724;51.176;-0.708;2023-09-07T14:13:25;101030.73;;;44.56;17.42